Terminal Aerodrome Forecast
Issued by NWS Nashville, TN

Home | Current Version | Previous Version | Text Only | Print | Product List | Glossary On
Versions: 1 2 3 4 5 6 7 8 9 10 11 12 13 14 15 16 17
000
FTUS44 KOHX 231420 AAB
TAFCSV
TAF AMD
KCSV 231420Z 2314/2412 24007KT P6SM VCTS SCT030CB SCT250
      TEMPO 2314/2318 BKN020CB
     FM232200 26010KT P6SM VCTS SCT050CB BKN250
     FM240300 25003KT P6SM BKN250 PROB30 2403/2406 5SM -TSRA
      BKN040CB OVC250
     FM241000 00000KT 4SM BR SCT100 BKN250=

USA.gov is the U.S. government's official web portal to all federal, state and local government web resources and services.